Time;durP1;ratioP1;P1;durP2;ratioP2;P2;SDS_P1;SDS_P2;PMS_P1;PMS_P2;Temp;Humidity;BMP_temperature;BMP_pressure;BME280_temperature;BME280_humidity;BME280_pressure;Samples;Min_cycle;Max_cycle;Signal;HPM_P1;HPM_P2
2021/04/14 00:00:05;;;;;;;1.13;0.70;;;;;;;26.27;24.86;97694.81;5045049;28;20024;-26
2021/04/14 00:02:31;;;;;;;2.83;1.17;;;;;;;26.26;24.77;97687.84;5042618;28;20035;-22
2021/04/14 00:04:56;;;;;;;2.42;0.50;;;;;;;26.26;24.81;97685.22;5048065;28;20021;-27
2021/04/14 00:07:22;;;;;;;1.88;0.70;;;;;;;26.27;24.82;97681.66;5046946;28;20028;-26
2021/04/14 00:09:47;;;;;;;0.93;0.65;;;;;;;26.26;24.91;97682.59;5043313;28;20052;-25
2021/04/14 00:12:13;;;;;;;1.05;0.65;;;;;;;26.26;24.86;97682.59;5042316;28;20507;-28
2021/04/14 00:14:38;;;;;;;0.70;0.60;;;;;;;26.26;24.75;97677.34;5043378;28;20386;-26
2021/04/14 00:17:04;;;;;;;1.40;0.77;;;;;;;26.26;24.73;97677.34;5044298;28;20024;-24
2021/04/14 00:19:30;;;;;;;1.30;0.60;;;;;;;26.26;24.97;97672.09;5043819;28;20025;-25
2021/04/14 00:21:55;;;;;;;1.92;0.77;;;;;;;26.25;24.85;97675.59;5046121;28;20028;-26
2021/04/14 00:24:21;;;;;;;1.77;0.70;;;;;;;26.25;24.75;97670.34;5042107;28;20815;-26
2021/04/14 00:26:46;;;;;;;2.60;0.52;;;;;;;26.25;24.99;97675.59;5039310;28;20040;-27
2021/04/14 00:29:12;;;;;;;1.48;0.95;;;;;;;26.24;24.83;97668.66;5041413;28;20028;-25
2021/04/14 00:31:39;;;;;;;0.95;0.70;;;;;;;26.24;24.82;97671.28;5044523;28;20131;-23
2021/04/14 00:34:13;;;;;;;0.70;0.70;;;;;;;26.23;24.82;97670.41;5045954;28;20032;-27
2021/04/14 00:36:38;;;;;;;1.25;0.50;;;;;;;26.24;24.94;97668.66;5045176;28;20460;-24
2021/04/14 00:39:05;;;;;;;1.60;0.80;;;;;;;26.23;24.94;97666.91;5043756;28;20057;-27
2021/04/14 00:41:30;;;;;;;0.50;0.50;;;;;;;26.22;25.01;97668.72;5044640;28;20024;-24
2021/04/14 00:43:56;;;;;;;4.38;0.60;;;;;;;26.22;24.94;97665.22;5048023;28;20031;-31
2021/04/14 00:46:21;;;;;;;1.35;0.70;;;;;;;26.23;25.01;97666.91;5040501;28;20747;-27
2021/04/14 00:48:47;;;;;;;1.13;0.70;;;;;;;26.22;25.00;97666.09;5048307;28;20040;-27
2021/04/14 00:51:12;;;;;;;1.55;0.60;;;;;;;26.23;24.92;97664.28;5045138;28;20025;-22
2021/04/14 00:53:38;;;;;;;1.75;0.80;;;;;;;26.21;24.97;97659.09;5045333;28;20074;-29
2021/04/14 00:56:03;;;;;;;1.08;0.50;;;;;;;26.21;24.98;97656.47;5044208;28;20047;-27
2021/04/14 00:58:29;;;;;;;1.15;0.50;;;;;;;26.21;24.93;97653.00;5042452;28;20081;-24
2021/04/14 01:00:54;;;;;;;0.95;0.70;;;;;;;26.20;24.97;97649.50;5041318;28;20304;-26
2021/04/14 01:03:30;;;;;;;0.70;0.57;;;;;;;26.21;24.88;97647.75;5046778;28;20044;-25
2021/04/14 01:05:55;;;;;;;2.25;0.70;;;;;;;26.20;25.06;97646.88;5048403;28;20060;-26
2021/04/14 01:08:21;;;;;;;1.20;0.70;;;;;;;26.21;24.93;97637.25;5039362;28;21068;-28
2021/04/14 01:10:47;;;;;;;0.52;0.50;;;;;;;26.19;24.86;97637.28;5045310;28;20083;-26
2021/04/14 01:13:12;;;;;;;1.27;0.52;;;;;;;26.19;24.85;97633.81;5046271;28;20028;-27
2021/04/14 01:15:39;;;;;;;0.50;0.50;;;;;;;26.19;24.85;97633.81;5036473;28;20040;-30
2021/04/14 01:18:06;;;;;;;2.15;0.90;;;;;;;26.19;24.82;97633.81;5037748;28;20107;-26
2021/04/14 01:20:33;;;;;;;0.80;0.60;;;;;;;26.19;24.96;97631.19;5042035;28;20031;-26
2021/04/14 01:22:58;;;;;;;1.55;0.63;;;;;;;26.18;25.06;97632.97;5043274;28;20035;-25
2021/04/14 01:25:30;;;;;;;2.72;0.63;;;;;;;26.18;24.88;97632.09;5044994;28;20037;-28
2021/04/14 01:27:55;;;;;;;;;;;;;;;26.17;25.03;97631.28;5042058;28;20033;-26
2021/04/14 01:30:23;;;;;;;0.60;0.50;;;;;;;26.18;24.84;97634.72;5039411;28;20384;-22
2021/04/14 01:32:49;;;;;;;2.47;0.80;;;;;;;26.16;25.04;97631.31;5056370;28;20043;-26
2021/04/14 01:35:15;;;;;;;3.03;0.50;;;;;;;26.16;24.96;97633.97;5037104;28;20585;-24
2021/04/14 01:37:41;;;;;;;0.75;0.57;;;;;;;26.16;24.93;97632.16;5036960;28;20110;-25
2021/04/14 01:40:08;;;;;;;2.30;0.65;;;;;;;26.15;24.88;97638.34;5039074;28;20083;-28
2021/04/14 01:42:33;;;;;;;14.18;0.65;;;;;;;26.16;25.05;97641.84;5036589;28;20035;-30
2021/04/14 01:44:59;;;;;;;1.13;0.60;;;;;;;26.15;24.95;97629.59;5033969;28;20033;-24
2021/04/14 01:47:24;;;;;;;1.15;0.55;;;;;;;26.14;25.01;97626.13;5036211;28;20036;-28
2021/04/14 01:49:49;;;;;;;0.60;0.52;;;;;;;26.15;24.87;97632.22;5044633;28;20028;-25
2021/04/14 01:52:15;;;;;;;9.63;0.93;;;;;;;26.15;24.77;97622.56;5042056;28;20687;-27
2021/04/14 01:54:40;;;;;;;7.47;1.00;;;;;;;26.14;24.94;97628.75;5040674;28;20028;-28
2021/04/14 01:57:06;;;;;;;2.95;0.60;;;;;;;26.14;24.98;97630.53;5041762;28;20485;-26
2021/04/14 01:59:32;;;;;;;1.35;0.60;;;;;;;26.12;24.81;97617.44;5043203;28;20028;-27
2021/04/14 02:01:57;;;;;;;1.25;0.65;;;;;;;26.13;24.85;97619.19;5044516;28;20024;-27
2021/04/14 02:04:23;;;;;;;2.47;0.65;;;;;;;26.13;24.95;97623.56;5045613;28;20063;-25
2021/04/14 02:06:48;;;;;;;1.33;0.60;;;;;;;26.13;24.98;97624.44;5043585;28;20645;-26
2021/04/14 02:09:14;;;;;;;0.77;0.50;;;;;;;26.12;24.98;97627.13;5043814;28;20036;-25
2021/04/14 02:11:40;;;;;;;2.70;0.75;;;;;;;26.12;25.06;97619.22;5044252;28;20021;-26
2021/04/14 02:14:09;;;;;;;0.98;0.52;;;;;;;26.12;24.98;97624.50;5041406;28;20029;-26
2021/04/14 02:16:34;;;;;;;4.93;0.60;;;;;;;26.10;25.01;97620.13;5046610;28;20039;-27
2021/04/14 02:19:00;;;;;;;0.77;0.60;;;;;;;26.12;25.00;97627.13;5046640;28;20029;-28
2021/04/14 02:21:25;;;;;;;1.90;0.60;;;;;;;26.12;25.01;97620.06;5047104;28;20213;-24
2021/04/14 02:23:51;;;;;;;2.22;0.50;;;;;;;26.11;24.93;97621.00;5046347;28;20059;-25
2021/04/14 02:26:19;;;;;;;1.13;0.57;;;;;;;26.12;25.00;97613.97;5044307;28;20051;-28
2021/04/14 02:28:45;;;;;;;1.20;0.52;;;;;;;26.12;25.14;97619.22;5051629;28;20105;-29
2021/04/14 02:31:11;;;;;;;0.57;0.57;;;;;;;26.10;24.97;97617.50;5053009;28;20025;-23
2021/04/14 02:33:37;;;;;;;1.45;0.70;;;;;;;26.09;25.04;97610.53;5047149;28;20056;-28
2021/04/14 02:36:03;;;;;;;0.82;0.68;;;;;;;26.10;25.03;97614.88;5049883;28;20071;-27
2021/04/14 02:38:28;;;;;;;2.60;0.63;;;;;;;26.09;25.02;97621.06;5045811;28;20037;-29
2021/04/14 02:40:54;;;;;;;0.82;0.60;;;;;;;26.09;25.08;97613.19;5046390;28;20553;-27
2021/04/14 02:43:20;;;;;;;1.08;0.70;;;;;;;26.10;24.86;97614.03;5045615;28;20028;-27
2021/04/14 02:45:46;;;;;;;2.10;0.68;;;;;;;26.09;24.93;97605.28;5041377;28;20033;-27
2021/04/14 02:48:11;;;;;;;0.47;0.45;;;;;;;26.10;25.03;97603.53;5048817;28;20036;-24
2021/04/14 02:50:37;;;;;;;1.10;0.68;;;;;;;26.08;24.91;97606.22;5032876;28;20040;-27
2021/04/14 02:53:02;;;;;;;2.85;0.80;;;;;;;26.09;25.13;97601.84;5045789;28;20036;-27
2021/04/14 02:55:28;;;;;;;1.00;0.50;;;;;;;26.08;24.91;97605.34;5059021;28;20055;-24
2021/04/14 02:57:54;;;;;;;2.30;0.50;;;;;;;26.08;25.11;97603.59;5052113;28;20678;-25
2021/04/14 03:00:20;;;;;;;0.75;0.52;;;;;;;26.08;25.05;97600.97;5045758;28;20094;-26
2021/04/14 03:02:46;;;;;;;0.50;0.40;;;;;;;26.08;24.94;97600.97;5050837;28;20814;-23
2021/04/14 03:05:12;;;;;;;0.45;0.40;;;;;;;26.07;24.98;97599.25;5047773;28;20077;-25
2021/04/14 03:07:39;;;;;;;2.08;0.93;;;;;;;26.07;24.80;97599.25;5050894;28;20039;-27
2021/04/14 03:10:06;;;;;;;1.67;0.80;;;;;;;26.07;25.00;97599.25;5042479;28;20032;-27
2021/04/14 03:12:32;;;;;;;0.65;0.43;;;;;;;26.06;25.03;97597.56;5039047;28;20076;-26
2021/04/14 03:14:57;;;;;;;1.92;0.40;;;;;;;26.06;25.15;97597.56;5047705;28;20029;-24
2021/04/14 03:17:22;;;;;;;1.10;0.60;;;;;;;26.06;25.09;97594.94;5049646;28;20035;-27
2021/04/14 03:19:48;;;;;;;1.48;0.70;;;;;;;26.06;25.08;97589.69;5049188;28;20032;-26
2021/04/14 03:22:14;;;;;;;2.88;0.57;;;;;;;26.07;25.04;97591.38;5046556;28;20025;-24
2021/04/14 03:24:39;;;;;;;1.80;0.55;;;;;;;26.05;25.00;97585.31;5047925;28;20020;-27
2021/04/14 03:27:05;;;;;;;0.68;0.50;;;;;;;26.04;25.00;97583.63;5048581;28;20107;-27
2021/04/14 03:29:30;;;;;;;1.27;0.52;;;;;;;26.05;25.12;97580.06;5050078;28;20029;-27
2021/04/14 03:31:56;;;;;;;1.40;0.65;;;;;;;26.06;25.06;97578.31;5051446;28;20028;-26
2021/04/14 03:34:21;;;;;;;0.65;0.50;;;;;;;26.05;25.04;97580.06;5048864;28;20099;-22
2021/04/14 03:36:46;;;;;;;1.48;0.60;;;;;;;26.05;24.96;97580.06;5044186;28;20039;-27
2021/04/14 03:39:12;;;;;;;2.65;0.45;;;;;;;26.04;24.95;97578.38;5049434;28;20062;-24
2021/04/14 03:41:37;;;;;;;1.10;0.50;;;;;;;26.04;25.05;97577.50;5053115;28;20074;-24
2021/04/14 03:44:03;;;;;;;1.38;0.60;;;;;;;26.03;25.03;97571.41;5046798;28;20028;-25
2021/04/14 03:46:28;;;;;;;1.48;0.63;;;;;;;26.04;25.06;97572.25;5044115;28;20033;-26
2021/04/14 03:48:54;;;;;;;1.85;0.60;;;;;;;26.04;24.91;97577.50;5045448;28;20040;-24
2021/04/14 03:51:19;;;;;;;0.70;0.40;;;;;;;26.03;24.93;97581.06;5051458;28;20092;-26
2021/04/14 03:53:45;;;;;;;1.33;0.50;;;;;;;26.02;25.01;97574.97;5046519;28;20024;-22
2021/04/14 03:56:12;;;;;;;3.17;0.70;;;;;;;26.02;24.97;97580.22;5040941;28;20024;-27
2021/04/14 03:58:39;;;;;;;0.75;0.40;;;;;;;26.02;25.00;97577.59;5042507;28;20032;-26
2021/04/14 04:01:07;;;;;;;0.52;0.47;;;;;;;26.02;25.05;97582.84;5044080;28;20035;-29
2021/04/14 04:03:32;;;;;;;1.65;0.50;;;;;;;25.96;25.10;97575.22;5046370;28;20039;-26
2021/04/14 04:05:57;;;;;;;0.47;0.40;;;;;;;26.02;25.18;97588.09;5047937;28;20033;-24
2021/04/14 04:08:23;;;;;;;0.85;0.47;;;;;;;26.02;25.02;97580.22;5047474;28;20033;-29
2021/04/14 04:10:48;;;;;;;0.65;0.40;;;;;;;26.01;25.08;97582.91;5044848;28;20063;-25
2021/04/14 04:13:15;;;;;;;0.40;0.40;;;;;;;26.01;24.92;97582.91;5051307;28;20025;-25
2021/04/14 04:15:40;;;;;;;0.82;0.52;;;;;;;26.00;24.92;97582.03;5047631;28;20629;-28
2021/04/14 04:18:06;;;;;;;3.30;0.50;;;;;;;26.00;25.13;97576.78;5045031;28;20025;-23
2021/04/14 04:20:32;;;;;;;0.70;0.50;;;;;;;25.96;24.95;97570.81;5043770;28;20036;-24
2021/04/14 04:22:58;;;;;;;0.88;0.57;;;;;;;25.99;25.18;97575.09;5045924;28;20044;-29
2021/04/14 04:25:24;;;;;;;0.98;0.50;;;;;;;26.00;25.13;97581.22;5045101;28;20036;-29
2021/04/14 04:27:49;;;;;;;0.85;0.43;;;;;;;25.95;25.04;97573.50;5043882;28;20044;-27
2021/04/14 04:30:15;;;;;;;0.50;0.28;;;;;;;25.99;24.99;97585.59;5044121;28;20033;-26
2021/04/14 04:32:41;;;;;;;0.50;0.43;;;;;;;25.96;25.00;97581.31;5048470;28;20021;-25
2021/04/14 04:35:07;;;;;;;1.35;0.40;;;;;;;25.98;25.17;97583.88;5047050;28;20039;-28
2021/04/14 04:37:33;;;;;;;0.80;0.60;;;;;;;25.96;25.14;97578.69;5043495;28;20052;-27
2021/04/14 04:39:58;;;;;;;1.40;0.45;;;;;;;25.97;25.21;97582.16;5044818;28;20475;-26
2021/04/14 04:42:24;;;;;;;0.43;0.43;;;;;;;25.97;25.11;97582.16;5042091;28;20036;-26
2021/04/14 04:44:49;;;;;;;2.22;0.70;;;;;;;25.96;25.00;97588.34;5043814;28;20044;-28
2021/04/14 04:47:15;;;;;;;0.68;0.50;;;;;;;25.95;25.15;97589.25;5049111;28;20070;-25
2021/04/14 04:49:40;;;;;;;0.88;0.50;;;;;;;25.95;25.18;97589.25;5046193;28;20040;-27
2021/04/14 04:52:06;;;;;;;1.20;0.50;;;;;;;25.94;25.09;97587.56;5046660;28;20025;-29
2021/04/14 04:54:32;;;;;;;1.33;0.60;;;;;;;25.94;25.15;97588.41;5042356;28;20036;-28
2021/04/14 04:56:57;;;;;;;0.88;0.40;;;;;;;25.95;25.09;97594.50;5046182;28;20553;-22
2021/04/14 04:59:23;;;;;;;1.20;0.40;;;;;;;25.94;25.20;97601.53;5043387;28;20032;-26
2021/04/14 05:01:48;;;;;;;0.75;0.30;;;;;;;25.93;25.12;97602.44;5023416;28;20039;-25
2021/04/14 05:04:13;;;;;;;0.57;0.40;;;;;;;25.93;25.11;97596.38;5042378;28;20477;-28
2021/04/14 05:06:39;;;;;;;1.30;0.70;;;;;;;25.94;25.24;97605.94;5052194;28;20040;-29
2021/04/14 05:09:04;;;;;;;0.73;0.40;;;;;;;25.93;25.28;97602.44;5043551;28;20688;-27
2021/04/14 05:11:30;;;;;;;0.52;0.45;;;;;;;25.93;25.14;97606.88;5041043;28;20028;-28
2021/04/14 05:13:58;;;;;;;0.30;0.30;;;;;;;25.94;25.15;97605.94;5046805;28;20033;-22
2021/04/14 05:16:24;;;;;;;0.30;0.30;;;;;;;25.92;25.10;97605.13;5043966;28;20034;-28
2021/04/14 05:18:49;;;;;;;0.93;0.50;;;;;;;25.92;25.28;97589.38;5047155;28;20033;-28
2021/04/14 05:21:15;;;;;;;0.50;0.50;;;;;;;25.92;25.13;97599.88;5045017;28;20012;-26
2021/04/14 05:23:40;;;;;;;1.23;0.47;;;;;;;25.92;25.14;97599.88;5036218;28;21075;-25
2021/04/14 05:26:06;;;;;;;0.95;0.50;;;;;;;25.91;25.24;97603.44;5045365;28;20520;-26
2021/04/14 05:28:31;;;;;;;0.45;0.45;;;;;;;25.91;25.31;97595.56;5047552;28;20025;-27
2021/04/14 05:30:57;;;;;;;0.68;0.40;;;;;;;25.91;25.26;97599.03;5046296;28;20471;-22
2021/04/14 05:33:22;;;;;;;0.50;0.40;;;;;;;25.91;25.28;97604.31;5047739;28;20540;-24
2021/04/14 05:35:48;;;;;;;2.05;1.23;;;;;;;25.90;25.08;97601.72;5042103;28;20028;-28
2021/04/14 05:38:13;;;;;;;1.48;0.80;;;;;;;25.89;25.19;97605.28;5046405;28;20036;-27
2021/04/14 05:40:39;;;;;;;0.63;0.60;;;;;;;25.88;25.17;97614.06;5049259;28;20094;-26
2021/04/14 05:43:24;;;;;;;2.67;0.65;;;;;;;25.89;25.19;97610.53;5020608;28;20485;-27
2021/04/14 05:45:54;;;;;;;0.70;0.57;;;;;;;25.89;25.09;97610.53;5040354;28;22449;-28
2021/04/14 05:48:19;;;;;;;0.45;0.45;;;;;;;25.89;25.30;97615.78;5043936;28;20033;-28
2021/04/14 05:50:47;;;;;;;0.30;0.30;;;;;;;25.88;25.07;97614.06;5040865;28;20032;-28
2021/04/14 05:53:13;;;;;;;2.35;0.60;;;;;;;25.88;25.22;97614.06;5053412;28;20041;-24
2021/04/14 05:55:38;;;;;;;0.95;0.60;;;;;;;25.88;25.31;97624.56;5049218;28;20043;-26
2021/04/14 05:58:03;;;;;;;0.60;0.40;;;;;;;25.87;25.25;97622.84;5049585;28;20567;-26
2021/04/14 06:00:29;;;;;;;1.42;0.40;;;;;;;25.87;25.35;97623.72;5054366;28;20036;-23
2021/04/14 06:02:54;;;;;;;8.77;1.30;;;;;;;25.86;25.10;97623.78;5049048;28;20033;-28
2021/04/14 06:05:21;;;;;;;5.57;1.55;;;;;;;25.86;24.95;97629.03;5053543;28;20399;-27
2021/04/14 06:07:47;;;;;;;3.70;0.80;;;;;;;25.83;25.15;97625.59;5046216;28;20629;-25
2021/04/14 06:10:13;;;;;;;3.05;1.15;;;;;;;25.83;25.12;97625.59;5054567;28;20043;-23
2021/04/14 06:12:38;;;;;;;0.98;0.60;;;;;;;25.82;25.16;97626.50;5033676;28;20033;-29
2021/04/14 06:15:06;;;;;;;2.38;0.52;;;;;;;25.84;25.07;97629.09;5045626;28;20028;-24
2021/04/14 06:17:31;;;;;;;5.05;0.65;;;;;;;25.83;25.18;97627.38;5051358;28;20037;-28
2021/04/14 06:19:56;;;;;;;2.00;0.82;;;;;;;25.84;25.23;97634.34;5053058;28;20036;-25
2021/04/14 06:22:22;;;;;;;1.52;0.70;;;;;;;25.85;25.32;97635.19;5045598;28;20032;-25
2021/04/14 06:24:47;;;;;;;0.75;0.60;;;;;;;25.83;25.25;97633.47;5053908;28;20032;-28
2021/04/14 06:27:26;;;;;;;2.08;0.80;;;;;;;25.83;25.22;97633.47;5053651;28;20089;-25
2021/04/14 06:29:51;;;;;;;2.50;0.88;;;;;;;25.84;25.22;97634.34;5045960;28;20025;-25
2021/04/14 06:32:17;;;;;;;0.88;0.50;;;;;;;25.84;25.19;97629.09;5047926;28;20032;-28
2021/04/14 06:34:43;;;;;;;11.25;0.80;;;;;;;25.85;25.38;97629.94;5051631;28;20507;-26
2021/04/14 06:37:08;;;;;;;5.00;0.65;;;;;;;25.84;25.40;97634.34;5049311;28;20055;-25
2021/04/14 06:39:36;;;;;;;5.00;0.90;;;;;;;25.81;25.20;97624.81;5043763;28;20040;-26
2021/04/14 06:42:24;;;;;;;1.70;0.70;;;;;;;25.87;25.21;97638.59;5043920;28;20048;-25
2021/04/14 06:45:03;;;;;;;5.13;0.60;;;;;;;25.86;25.24;97636.91;5030853;28;20400;-25
2021/04/14 06:47:35;;;;;;;11.02;0.82;;;;;;;25.86;25.26;97636.91;5045226;28;20520;-27
2021/04/14 06:50:06;;;;;;;6.07;0.73;;;;;;;25.88;25.23;97635.06;5041976;28;20048;-29
2021/04/14 06:52:46;;;;;;;4.68;1.10;;;;;;;25.89;25.36;97634.16;5038904;28;20548;-26
2021/04/14 06:55:14;;;;;;;3.95;1.60;;;;;;;25.88;25.09;97632.44;5034141;28;20101;-24
2021/04/14 06:57:41;;;;;;;8.13;2.17;;;;;;;25.87;24.51;97631.59;5028512;28;20178;-28
2021/04/14 07:00:29;;;;;;;5.70;1.75;;;;;;;25.83;23.84;97636.09;5029787;28;22401;-25
2021/04/14 07:03:08;;;;;;;4.25;1.75;;;;;;;25.80;23.81;97632.75;5039017;28;20047;-27
2021/04/14 07:05:38;;;;;;;3.15;1.52;;;;;;;25.76;23.51;97632.03;5040969;28;20255;-27
2021/04/14 07:08:08;;;;;;;2.58;1.65;;;;;;;25.70;23.33;97625.25;5025712;28;20059;-27
2021/04/14 07:10:35;;;;;;;4.20;1.75;;;;;;;25.68;23.11;97634.09;5010516;28;20047;-27
2021/04/14 07:13:04;;;;;;;3.05;2.00;;;;;;;25.65;23.26;97626.31;5041934;28;20586;-24
2021/04/14 07:15:29;;;;;;;9.82;1.80;;;;;;;25.61;23.24;97630.84;5037439;28;20036;-23
2021/04/14 07:18:14;;;;;;;5.68;1.80;;;;;;;25.57;22.84;97627.50;5021047;28;20032;-25
2021/04/14 07:20:43;;;;;;;7.20;1.55;;;;;;;25.56;23.04;97620.53;5037711;28;20025;-25
2021/04/14 07:23:36;;;;;;;5.97;2.00;;;;;;;25.55;22.95;97617.94;5041907;28;20103;-26
2021/04/14 07:26:05;;;;;;;10.73;1.85;;;;;;;25.51;22.97;97616.34;5040773;28;20024;-24
2021/04/14 07:29:08;;;;;;;4.03;1.70;;;;;;;25.50;22.75;97618.13;5024753;28;20047;-25
2021/04/14 07:31:48;;;;;;;10.23;2.15;;;;;;;25.48;22.81;97616.47;5043000;28;20024;-25
2021/04/14 07:34:17;;;;;;;13.93;2.38;;;;;;;25.45;22.75;97617.44;5048386;28;20119;-22
2021/04/14 07:36:52;;;;;;;20.20;2.90;;;;;;;25.42;22.58;97620.19;5036955;28;20445;-26
2021/04/14 07:39:29;;;;;;;15.48;2.63;;;;;;;25.39;22.50;97613.28;5035583;28;20031;-26
2021/04/14 07:42:05;;;;;;;16.38;2.63;;;;;;;25.34;22.64;97609.97;5028691;28;20027;-25
2021/04/14 07:45:08;;;;;;;16.50;2.80;;;;;;;25.37;22.51;97614.25;5038753;28;20113;-24
2021/04/14 07:47:33;;;;;;;11.25;2.67;;;;;;;25.36;22.50;97615.19;5037885;28;20059;-25
2021/04/14 07:49:59;;;;;;;13.63;2.50;;;;;;;25.36;22.44;97618.63;5039082;28;20039;-25
2021/04/14 07:52:27;;;;;;;13.93;2.47;;;;;;;25.35;22.34;97611.69;5038865;28;20016;-25
2021/04/14 07:54:52;;;;;;;9.43;2.00;;;;;;;25.36;22.28;97607.31;5023927;28;20033;-26
2021/04/14 07:57:31;;;;;;;6.38;1.77;;;;;;;25.36;22.47;97613.38;5038894;28;20036;-23
2021/04/14 07:59:56;;;;;;;7.95;2.00;;;;;;;25.36;22.29;97608.13;5038025;28;20784;-24
2021/04/14 08:02:32;;;;;;;3.90;1.70;;;;;;;25.36;22.43;97610.75;5020967;28;20036;-25
2021/04/14 08:05:26;;;;;;;7.35;2.15;;;;;;;25.36;22.27;97605.50;5039211;28;20553;-23
2021/04/14 08:07:52;;;;;;;8.77;1.92;;;;;;;25.37;22.17;97609.00;5032430;28;20551;-24
2021/04/14 08:10:19;;;;;;;6.68;1.70;;;;;;;25.35;22.40;97605.59;5037976;28;20039;-24
2021/04/14 08:12:54;;;;;;;8.02;1.98;;;;;;;25.34;22.15;97601.25;5037171;28;20037;-27
2021/04/14 08:15:29;;;;;;;6.43;1.70;;;;;;;25.34;21.97;97601.25;5038157;28;20438;-24
2021/04/14 08:18:13;;;;;;;2.25;1.60;;;;;;;25.33;22.02;97602.16;5037607;28;20460;-25
2021/04/14 08:20:39;;;;;;;6.55;1.90;;;;;;;25.31;22.13;97595.22;5029809;28;20524;-27
2021/04/14 08:23:10;;;;;;;8.85;2.10;;;;;;;25.28;21.07;97595.31;5040424;28;20027;-27
2021/04/14 08:25:36;;;;;;;12.27;2.05;;;;;;;25.17;20.69;97602.75;5039295;28;20060;-29
2021/04/14 08:28:02;;;;;;;5.30;2.13;;;;;;;25.03;20.57;97591.03;5043742;28;20032;-23
2021/04/14 08:30:28;;;;;;;5.32;2.28;;;;;;;24.89;20.22;97588.03;5040354;28;20028;-29
2021/04/14 08:32:53;;;;;;;7.25;2.35;;;;;;;24.72;19.66;97586.88;5042055;28;20121;-29
2021/04/14 08:35:44;;;;;;;5.60;2.42;;;;;;;24.47;18.91;97587.72;5042369;28;20034;-28
2021/04/14 08:38:12;;;;;;;6.00;2.90;;;;;;;24.23;19.24;97585.06;5017829;28;20020;-29
2021/04/14 08:40:45;;;;;;;9.38;2.33;;;;;;;24.00;19.08;97584.03;5039613;28;20068;-27
2021/04/14 08:43:12;;;;;;;6.75;1.95;;;;;;;23.89;19.84;97583.53;5034859;28;20629;-25
2021/04/14 08:45:42;;;;;;;5.25;2.00;;;;;;;23.84;19.89;97586.28;5040774;28;20036;-26
2021/04/14 08:48:10;;;;;;;7.95;2.13;;;;;;;23.85;20.38;97588.03;5020613;28;20127;-24
2021/04/14 08:50:39;;;;;;;8.27;2.47;;;;;;;23.90;20.43;97592.25;5037265;28;20056;-26
2021/04/14 08:53:09;;;;;;;7.25;1.75;;;;;;;23.95;20.71;97585.94;5044430;28;20055;-26
2021/04/14 08:55:37;;;;;;;5.28;1.83;;;;;;;24.04;20.96;97586.53;5025440;28;20039;-25
2021/04/14 08:58:04;;;;;;;7.43;1.60;;;;;;;24.11;20.91;97588.09;5040961;28;20151;-23
2021/04/14 09:00:30;;;;;;;6.38;1.77;;;;;;;24.17;21.12;97577.41;5039265;28;20782;-27
2021/04/14 09:03:03;;;;;;;5.43;1.63;;;;;;;24.26;21.36;97582.31;5037189;28;20036;-24
2021/04/14 09:05:29;;;;;;;3.20;1.80;;;;;;;24.34;21.44;97571.59;5042150;28;20033;-26
2021/04/14 09:07:54;;;;;;;5.60;1.90;;;;;;;24.41;21.31;97577.47;5021283;28;20039;-27
2021/04/14 09:10:53;;;;;;;4.57;1.60;;;;;;;24.48;21.41;97578.97;5033961;28;20165;-29
2021/04/14 09:13:30;;;;;;;4.65;1.63;;;;;;;24.51;21.56;97564.88;5037765;28;20031;-23
2021/04/14 09:15:56;;;;;;;5.75;1.52;;;;;;;24.60;21.86;97567.19;5036394;28;20028;-23
2021/04/14 09:18:46;;;;;;;6.13;1.60;;;;;;;24.67;21.69;97575.69;5038816;28;20040;-21
2021/04/14 09:21:19;;;;;;;3.42;1.50;;;;;;;24.72;21.84;97565.03;5035222;28;20036;-24
2021/04/14 09:24:06;;;;;;;8.30;1.92;;;;;;;24.74;21.82;97564.06;5027934;28;20040;-28
2021/04/14 09:26:39;;;;;;;20.65;2.00;;;;;;;24.82;22.09;97568.19;5023060;28;20025;-28
2021/04/14 09:29:24;;;;;;;12.15;1.60;;;;;;;24.85;21.98;97565.47;5038630;28;20029;-26
2021/04/14 09:31:51;;;;;;;9.77;1.63;;;;;;;24.86;22.20;97557.53;5025460;28;20139;-24
2021/04/14 09:34:37;;;;;;;5.13;1.27;;;;;;;24.91;22.25;97562.63;5029060;28;20080;-25
2021/04/14 09:37:16;;;;;;;13.45;1.60;;;;;;;24.94;22.41;97562.50;5042923;28;20056;-30
2021/04/14 09:40:30;;;;;;;5.63;1.35;;;;;;;24.97;22.38;97559.78;5049578;28;20024;-26
2021/04/14 09:42:56;;;;;;;4.97;1.42;;;;;;;25.01;22.43;97560.50;5017664;28;20072;-21
2021/04/14 09:45:27;;;;;;;13.00;1.23;;;;;;;25.03;22.78;97562.19;5026440;28;20048;-24
2021/04/14 09:47:53;;;;;;;5.82;1.27;;;;;;;25.04;22.75;97556.00;5046913;28;20064;-28
2021/04/14 09:50:28;;;;;;;8.48;1.48;;;;;;;25.08;22.65;97556.75;5042050;28;20033;-26
2021/04/14 09:52:54;;;;;;;5.82;1.23;;;;;;;25.11;22.69;97561.88;5045355;28;20765;-26
2021/04/14 09:55:27;;;;;;;6.35;1.38;;;;;;;25.13;22.77;97560.03;5046581;28;20044;-26
2021/04/14 09:57:52;;;;;;;2.97;1.10;;;;;;;25.15;22.65;97552.97;5047051;28;20025;-26
2021/04/14 10:00:23;;;;;;;2.90;1.20;;;;;;;25.17;23.03;97561.63;5050255;28;20027;-26
2021/04/14 10:02:51;;;;;;;7.15;1.25;;;;;;;25.20;23.01;97554.56;5042311;28;20029;-27
2021/04/14 10:05:16;;;;;;;4.38;1.23;;;;;;;25.20;22.90;97550.16;5046724;28;20209;-26
2021/04/14 10:07:43;;;;;;;6.05;1.55;;;;;;;25.22;23.20;97553.59;5047762;28;20031;-25
2021/04/14 10:10:09;;;;;;;6.75;0.88;;;;;;;25.24;23.12;97562.25;5047573;28;20028;-25
2021/04/14 10:12:34;;;;;;;3.03;1.15;;;;;;;25.26;23.08;97549.94;5045749;28;20032;-27
2021/04/14 10:15:00;;;;;;;2.85;1.15;;;;;;;25.28;23.19;97552.50;5050870;28;20024;-25
2021/04/14 10:17:30;;;;;;;2.97;1.17;;;;;;;25.28;23.22;97548.09;5048142;28;20040;-26
2021/04/14 10:20:06;;;;;;;3.53;1.00;;;;;;;25.30;23.18;97546.28;5047150;28;20032;-24
2021/04/14 10:22:36;;;;;;;3.55;1.27;;;;;;;25.33;23.16;97544.44;5042977;28;20460;-25
2021/04/14 10:25:11;;;;;;;3.08;1.08;;;;;;;25.35;23.23;97543.47;5030837;28;20028;-26
2021/04/14 10:27:36;;;;;;;1.42;0.82;;;;;;;25.35;23.31;97540.00;5048703;28;20051;-28
2021/04/14 10:30:06;;;;;;;5.82;1.20;;;;;;;25.37;23.32;97540.78;5047225;28;20020;-27
2021/04/14 10:32:31;;;;;;;4.95;1.23;;;;;;;25.36;23.41;97532.06;5041030;28;20098;-24
2021/04/14 10:35:08;;;;;;;2.42;1.00;;;;;;;25.38;23.43;97532.88;5038599;28;20398;-29
2021/04/14 10:37:40;;;;;;;1.92;1.00;;;;;;;25.40;23.43;97540.69;5038795;28;20125;-25
2021/04/14 10:40:11;;;;;;;1.70;0.80;;;;;;;25.41;23.52;97531.88;5043368;28;20442;-26
2021/04/14 10:42:37;;;;;;;3.42;1.23;;;;;;;25.42;23.56;97534.44;5045204;28;20056;-25
2021/04/14 10:45:07;;;;;;;2.88;1.27;;;;;;;25.43;23.54;97524.78;5038780;28;20066;-26
2021/04/14 10:47:33;;;;;;;3.92;0.82;;;;;;;25.44;23.56;97521.28;5042226;28;20032;-26
2021/04/14 10:50:04;;;;;;;3.65;0.93;;;;;;;25.45;23.58;97512.47;5039388;28;20027;-24
2021/04/14 10:52:30;;;;;;;4.17;1.10;;;;;;;25.47;23.67;97518.50;5041171;28;20032;-26
2021/04/14 10:54:57;;;;;;;2.75;0.75;;;;;;;25.47;23.70;97510.63;5037904;28;20628;-26
2021/04/14 10:57:35;;;;;;;2.55;0.93;;;;;;;25.48;23.59;97512.38;5031243;28;20028;-25
2021/04/14 11:00:11;;;;;;;1.10;0.63;;;;;;;25.49;23.81;97508.81;5043130;28;20036;-23
2021/04/14 11:02:43;;;;;;;1.77;0.80;;;;;;;25.50;23.64;97500.03;5029262;28;20532;-24
2021/04/14 11:05:10;;;;;;;3.85;1.50;;;;;;;25.49;22.57;97505.34;5027593;28;20489;-24
2021/04/14 11:07:36;;;;;;;5.28;1.52;;;;;;;25.43;21.94;97498.56;4688488;28;9999642;-23
2021/04/14 11:10:04;;;;;;;11.55;1.30;;;;;;;25.39;22.31;97491.72;5043887;28;20017;-25
2021/04/14 11:12:29;;;;;;;4.20;1.17;;;;;;;25.40;22.59;97490.81;5019672;28;20028;-26
2021/04/14 11:15:01;;;;;;;4.70;1.02;;;;;;;25.40;22.71;97490.81;5035873;28;21190;-28
2021/04/14 11:17:27;;;;;;;;;;;;;;;25.41;22.69;97496.00;5028798;28;20032;-26
2021/04/14 11:19:59;;;;;;;5.63;0.82;;;;;;;25.42;22.80;97489.84;5043522;28;19913;-29
2021/04/14 11:22:25;;;;;;;3.10;1.20;;;;;;;25.42;22.93;97489.84;5043056;28;20833;-24
2021/04/14 11:24:52;;;;;;;3.22;1.00;;;;;;;25.43;23.01;97488.94;5050883;28;20038;-28
2021/04/14 11:27:31;;;;;;;4.18;1.08;;;;;;;25.44;23.39;97492.41;5051670;28;20033;-25
2021/04/14 11:30:14;;;;;;;3.08;1.08;;;;;;;25.45;23.21;97486.25;5045725;28;20048;-23
2021/04/14 11:32:39;;;;;;;2.25;1.00;;;;;;;25.46;23.29;97485.31;5041818;28;20120;-26
2021/04/14 11:35:07;;;;;;;5.13;0.90;;;;;;;25.48;23.46;97486.13;5049235;28;20020;-26
2021/04/14 11:37:35;;;;;;;2.30;0.75;;;;;;;25.49;23.55;97477.34;5046026;28;20020;-24
2021/04/14 11:40:07;;;;;;;2.90;0.90;;;;;;;25.50;23.68;97484.28;5049750;28;20036;-26